Time;durP1;ratioP1;P1;durP2;ratioP2;P2;SDS_P1;SDS_P2;PMS_P1;PMS_P2;Temp;Humidity;BMP_temperature;BMP_pressure;BME280_temperature;BME280_humidity;BME280_pressure;Samples;Min_cycle;Max_cycle;Signal;HPM_P1;HPM_P2
2023/11/01 00:00:32;;;;;;;0.00;0.00;;;;;;;12.45;100.00;98548.81;4901951;29;20463;-76
2023/11/01 00:02:58;;;;;;;0.00;0.00;;;;;;;12.41;100.00;98537.69;4900173;29;20119;-75
2023/11/01 00:05:31;;;;;;;0.00;0.00;;;;;;;12.39;100.00;98520.78;4890874;29;22072;-76
2023/11/01 00:07:57;;;;;;;0.00;0.00;;;;;;;12.50;100.00;98521.22;4893990;29;20017;-78
2023/11/01 00:10:22;;;;;;;0.00;0.00;;;;;;;12.45;100.00;98513.19;4908440;29;20493;-78
2023/11/01 00:12:48;;;;;;;0.00;0.00;;;;;;;12.50;100.00;98513.81;4909075;29;20050;-76
2023/11/01 00:15:14;;;;;;;0.00;0.00;;;;;;;12.69;100.00;98527.16;4893356;29;20371;-77
2023/11/01 00:17:39;;;;;;;0.00;0.00;;;;;;;12.53;100.00;98490.44;4893809;29;20448;-79
2023/11/01 00:20:06;;;;;;;0.00;0.00;;;;;;;12.69;100.00;98505.22;4908615;29;20083;-78
2023/11/01 00:22:31;;;;;;;0.00;0.00;;;;;;;12.62;100.00;98488.47;4919372;29;20032;-78
2023/11/01 00:24:59;;;;;;;0.00;0.00;;;;;;;12.65;100.00;98490.56;4915292;29;20120;-76
2023/11/01 00:27:24;;;;;;;0.00;0.00;;;;;;;12.62;100.00;98466.53;4904934;29;20471;-76
2023/11/01 00:29:50;;;;;;;0.00;0.00;;;;;;;12.59;100.00;98456.22;4886044;29;20092;-74
2023/11/01 00:32:16;;;;;;;0.00;0.00;;;;;;;12.89;100.00;98487.25;4892593;29;20497;-76
2023/11/01 00:34:42;;;;;;;0.00;0.00;;;;;;;12.84;100.00;98479.19;4903322;29;20091;-76
2023/11/01 00:37:07;;;;;;;0.00;0.00;;;;;;;12.72;100.00;98460.69;4907294;29;20480;-77
2023/11/01 00:39:33;;;;;;;0.00;0.00;;;;;;;12.74;100.00;98458.41;4914710;29;20451;-78
2023/11/01 00:42:01;;;;;;;0.00;0.00;;;;;;;12.70;100.00;98457.50;4899020;29;20035;-77
2023/11/01 00:44:26;;;;;;;0.00;0.00;;;;;;;12.74;100.00;98455.69;4911701;29;20040;-76
2023/11/01 00:46:57;;;;;;;0.00;0.00;;;;;;;12.80;100.00;98458.25;4914907;29;20098;-76
2023/11/01 00:49:23;;;;;;;0.00;0.00;;;;;;;12.82;100.00;98458.72;4904324;29;20079;-74
2023/11/01 00:51:48;;;;;;;0.00;0.00;;;;;;;12.62;100.00;98430.91;4909640;29;20028;-76
2023/11/01 00:54:13;;;;;;;0.00;0.00;;;;;;;12.77;100.00;98440.50;4908189;29;20375;-78
2023/11/01 00:56:42;;;;;;;0.00;0.00;;;;;;;12.75;100.00;98443.59;4897224;29;20063;-76
2023/11/01 00:59:08;;;;;;;0.00;0.00;;;;;;;12.66;100.00;98433.78;4904024;29;20059;-75
2023/11/01 01:01:43;;;;;;;0.00;0.00;;;;;;;12.53;100.00;98408.19;4913299;29;20485;-76
2023/11/01 01:04:10;;;;;;;0.00;0.00;;;;;;;12.64;100.00;98431.34;4910482;29;20114;-74
2023/11/01 01:06:43;;;;;;;0.00;0.00;;;;;;;12.66;100.00;98436.50;4909758;29;20050;-75
2023/11/01 01:09:08;;;;;;;0.00;0.00;;;;;;;12.62;100.00;98425.41;4877174;29;20095;-75
2023/11/01 01:11:39;;;;;;;0.00;0.00;;;;;;;12.50;100.00;98397.84;4909673;29;20095;-75
2023/11/01 01:14:07;;;;;;;0.00;0.00;;;;;;;12.48;100.00;98400.13;4915454;29;20482;-76
2023/11/01 01:16:37;;;;;;;0.00;0.00;;;;;;;12.47;100.00;98393.03;4903054;29;20465;-76
2023/11/01 01:19:03;;;;;;;0.00;0.00;;;;;;;12.53;100.00;98408.19;4911936;29;20051;-75
2023/11/01 01:21:29;;;;;;;0.00;0.00;;;;;;;12.54;100.00;98404.31;4895668;29;20032;-75
2023/11/01 01:23:55;;;;;;;0.00;0.00;;;;;;;12.62;100.00;98395.25;4914435;29;20024;-76
2023/11/01 01:26:28;;;;;;;0.00;0.00;;;;;;;12.63;100.00;98391.38;4886808;29;20119;-75
2023/11/01 01:28:53;;;;;;;0.00;0.00;;;;;;;12.54;100.00;98371.41;4917716;29;20024;-75
2023/11/01 01:31:18;;;;;;;0.00;0.00;;;;;;;12.49;100.00;98363.38;4908804;29;20376;-76
2023/11/01 01:33:44;;;;;;;0.00;0.00;;;;;;;12.51;100.00;98350.97;4920768;29;20584;-75
2023/11/01 01:36:13;;;;;;;0.00;0.00;;;;;;;12.74;100.00;98378.88;4881262;29;20034;-77
2023/11/01 01:38:39;;;;;;;0.00;0.00;;;;;;;12.57;100.00;98337.84;4905976;29;20407;-77
2023/11/01 01:41:08;;;;;;;0.00;0.00;;;;;;;12.67;100.00;98344.91;4911886;29;20032;-76
2023/11/01 01:43:33;;;;;;;0.00;0.00;;;;;;;12.71;100.00;98349.38;4914701;29;20024;-76
2023/11/01 01:46:09;;;;;;;0.00;0.00;;;;;;;12.63;100.00;98342.03;4907563;29;20367;-76
2023/11/01 01:48:43;;;;;;;0.00;0.00;;;;;;;12.44;100.00;98315.03;4914294;29;20016;-76
2023/11/01 01:51:11;;;;;;;0.00;0.00;;;;;;;12.55;100.00;98329.16;4907707;29;20031;-75
2023/11/01 01:53:42;;;;;;;0.00;0.00;;;;;;;12.51;100.00;98322.72;4912324;29;20486;-77
2023/11/01 01:56:08;;;;;;;0.00;0.00;;;;;;;12.51;100.00;98306.28;4902601;29;20059;-76
2023/11/01 01:58:36;;;;;;;0.00;0.00;;;;;;;12.62;100.00;98318.47;4884503;29;20032;-76
2023/11/01 02:01:03;;;;;;;0.00;0.00;;;;;;;12.53;100.00;98298.53;4911095;29;20036;-74
2023/11/01 02:03:29;;;;;;;0.00;0.00;;;;;;;12.57;100.00;98299.47;4904399;29;20024;-76
2023/11/01 02:05:55;;;;;;;0.00;0.00;;;;;;;12.58;100.00;98295.59;4908500;29;20028;-75
2023/11/01 02:08:21;;;;;;;0.00;0.00;;;;;;;12.46;100.00;98268.09;4909867;29;20041;-76
2023/11/01 02:10:47;;;;;;;0.00;0.00;;;;;;;12.58;100.00;98276.41;4904407;29;20767;-75
2023/11/01 02:13:42;;;;;;;0.00;0.00;;;;;;;12.45;100.00;98252.78;4902818;29;20455;-75
2023/11/01 02:16:07;;;;;;;0.00;0.00;;;;;;;12.40;100.00;98235.38;4910042;29;20039;-77
2023/11/01 02:18:33;;;;;;;0.00;0.00;;;;;;;12.44;100.00;98229.22;4906255;29;20028;-76
2023/11/01 02:20:58;;;;;;;0.00;0.00;;;;;;;12.48;100.00;98222.75;4895352;29;20036;-76
2023/11/01 02:23:32;;;;;;;0.00;0.00;;;;;;;12.46;100.00;98221.50;4912554;29;20698;-78
2023/11/01 02:26:02;;;;;;;0.00;0.00;;;;;;;12.58;100.00;98227.84;4908462;29;20146;-77
2023/11/01 02:28:35;;;;;;;0.00;0.00;;;;;;;12.48;100.00;98194.53;4914637;29;20035;-79
2023/11/01 02:31:06;;;;;;;0.00;0.00;;;;;;;12.29;100.00;98160.16;4920550;29;20028;-78
2023/11/01 02:36:24;;;;;;;0.00;0.00;;;;;;;12.50;100.00;98184.84;4903235;29;20234;-77
2023/11/01 02:38:55;;;;;;;0.00;0.00;;;;;;;12.59;100.00;98195.75;4908594;29;20104;-77
2023/11/01 02:41:27;;;;;;;0.00;0.00;;;;;;;12.60;100.00;98194.63;4908228;29;20464;-76
2023/11/01 02:43:56;;;;;;;0.00;0.00;;;;;;;12.52;100.00;98190.00;4917549;29;20031;-78
2023/11/01 02:46:22;;;;;;;0.00;0.00;;;;;;;12.36;100.00;98165.91;4914898;29;20024;-78
2023/11/01 02:48:47;;;;;;;0.00;0.00;;;;;;;12.34;100.00;98168.19;4910666;29;20016;-77
2023/11/01 02:51:13;;;;;;;0.00;0.00;;;;;;;12.42;100.00;98168.47;4896096;29;20471;-76
2023/11/01 02:53:38;;;;;;;0.00;0.00;;;;;;;12.43;100.00;98156.38;4917875;29;20025;-77
2023/11/01 02:56:04;;;;;;;0.00;0.00;;;;;;;12.32;100.00;98156.75;4896819;29;20032;-77
2023/11/01 02:58:30;;;;;;;0.00;0.00;;;;;;;12.48;100.00;98158.91;4892752;29;20029;-76
2023/11/01 03:00:55;;;;;;;0.00;0.00;;;;;;;12.38;100.00;98144.47;4915967;29;20535;-77
2023/11/01 03:03:28;;;;;;;0.00;0.00;;;;;;;12.22;100.00;98113.31;4881881;29;20028;-75
2023/11/01 03:05:54;;;;;;;0.00;0.00;;;;;;;12.27;100.00;98118.59;4891508;29;20459;-77
2023/11/01 03:08:19;;;;;;;0.00;0.00;;;;;;;12.29;100.00;98112.78;4909744;29;20027;-77
2023/11/01 03:10:44;;;;;;;0.00;0.00;;;;;;;12.30;100.00;98115.19;4903560;29;20598;-75
2023/11/01 03:13:12;;;;;;;0.00;0.00;;;;;;;12.44;100.00;98136.88;4915151;29;20036;-77
2023/11/01 03:15:50;;;;;;;0.00;0.00;;;;;;;12.31;100.00;98114.06;4906959;29;20028;-76
2023/11/01 03:18:15;;;;;;;0.00;0.00;;;;;;;12.31;100.00;98100.34;4916269;29;20028;-76
2023/11/01 03:21:03;;;;;;;;;;;;;;;;;;;;;
2023/11/01 03:23:31;;;;;;;0.00;0.00;;;;;;;12.30;100.00;98092.47;4914976;29;20036;-78
2023/11/01 03:25:57;;;;;;;0.00;0.00;;;;;;;12.43;100.00;98101.56;4900553;29;20062;-77
2023/11/01 03:28:25;;;;;;;0.00;0.00;;;;;;;12.34;100.00;98083.25;4912945;29;20477;-76
2023/11/01 03:30:50;;;;;;;0.00;0.00;;;;;;;12.25;100.00;98057.03;4921407;29;20086;-78
2023/11/01 03:33:23;;;;;;;0.00;0.00;;;;;;;12.28;100.00;98075.53;4913673;29;20019;-78
2023/11/01 03:35:50;;;;;;;0.00;0.00;;;;;;;12.34;100.00;98072.28;4921114;29;20082;-77
2023/11/01 03:38:16;;;;;;;0.00;0.00;;;;;;;12.27;100.00;98061.06;4893881;29;20020;-77
2023/11/01 03:40:51;;;;;;;;;;;;;;;;;;;;;
2023/11/01 03:43:19;;;;;;;0.00;0.00;;;;;;;12.27;100.00;98044.63;4907744;29;20024;-78
2023/11/01 03:45:45;;;;;;;0.00;0.00;;;;;;;12.25;100.00;98024.97;4911381;29;20399;-78
2023/11/01 03:48:10;;;;;;;0.00;0.00;;;;;;;12.43;100.00;98049.50;4911476;29;20028;-77
2023/11/01 03:50:36;;;;;;;0.00;0.00;;;;;;;12.45;100.00;98025.28;4893791;29;20054;-77
2023/11/01 03:53:03;;;;;;;0.00;0.00;;;;;;;12.60;100.00;98045.78;4879034;29;20028;-76
2023/11/01 03:55:29;;;;;;;0.00;0.00;;;;;;;12.61;100.00;98031.72;4892869;29;20114;-78
2023/11/01 03:57:54;;;;;;;0.00;0.00;;;;;;;12.61;100.00;98053.66;4895660;29;20115;-77
2023/11/01 04:00:22;;;;;;;0.00;0.00;;;;;;;12.56;100.00;98019.03;4886273;29;20122;-78
2023/11/01 04:02:52;;;;;;;0.00;0.00;;;;;;;12.32;100.00;97991.53;4910300;29;20108;-77
2023/11/01 04:05:17;;;;;;;0.00;0.00;;;;;;;12.29;100.00;97998.50;4917935;29;20063;-77
2023/11/01 04:08:00;;;;;;;;;;;;;;;;;;;;;
2023/11/01 04:10:26;;;;;;;0.00;0.00;;;;;;;12.34;100.00;98017.47;4907698;29;20030;-77
2023/11/01 04:12:52;;;;;;;0.00;0.00;;;;;;;12.33;100.00;97993.16;4913727;29;20032;-78
2023/11/01 04:15:18;;;;;;;0.00;0.00;;;;;;;12.17;100.00;97969.09;4897225;29;20087;-77
2023/11/01 04:17:43;;;;;;;0.00;0.00;;;;;;;12.18;100.00;97958.97;4873244;29;20044;-77
2023/11/01 04:20:09;;;;;;;0.00;0.00;;;;;;;12.29;100.00;97965.59;4921951;29;20040;-77
2023/11/01 04:22:36;;;;;;;0.00;0.00;;;;;;;12.30;100.00;97952.72;4918669;29;20062;-77
2023/11/01 04:25:05;;;;;;;0.00;0.00;;;;;;;12.36;100.00;97976.81;4920711;29;20039;-76
2023/11/01 04:27:39;;;;;;;0.00;0.00;;;;;;;12.09;100.00;97933.56;4910006;29;20922;-77
2023/11/01 04:30:09;;;;;;;0.00;0.00;;;;;;;11.97;100.00;97899.53;4918689;29;20475;-77
2023/11/01 04:32:39;;;;;;;0.00;0.00;;;;;;;12.26;100.00;97957.28;4915195;29;20023;-77
2023/11/01 04:35:16;;;;;;;0.00;0.00;;;;;;;12.22;100.00;97943.44;4913698;29;20033;-76
2023/11/01 04:37:42;;;;;;;0.00;0.00;;;;;;;12.00;100.00;97912.56;4915573;29;20035;-77
2023/11/01 04:40:31;;;;;;;0.00;0.00;;;;;;;12.21;100.00;97941.84;4909670;29;20056;-79
2023/11/01 04:43:00;;;;;;;0.00;0.00;;;;;;;12.04;100.00;97910.72;4909055;29;20032;-77
2023/11/01 04:45:35;;;;;;;0.00;0.00;;;;;;;11.98;100.00;97890.16;4894833;29;20125;-78
2023/11/01 04:48:03;;;;;;;0.00;0.00;;;;;;;12.11;100.00;97901.19;4906766;29;20016;-76
2023/11/01 04:50:29;;;;;;;0.00;0.00;;;;;;;12.00;100.00;97878.88;4894029;29;20478;-76
2023/11/01 04:52:54;;;;;;;0.00;0.00;;;;;;;12.03;100.00;97887.22;4904853;29;20032;-78
2023/11/01 04:55:20;;;;;;;0.00;0.00;;;;;;;12.15;100.00;97976.03;4915245;29;20113;-80
2023/11/01 05:03:13;;;;;;;;;;;;;;;;;;;;;
2023/11/01 05:15:30;;;;;;;0.00;0.00;;;;;;;10.63;100.00;97928.38;4720426;30;20396;-78
2023/11/01 05:17:58;;;;;;;0.10;0.10;;;;;;;10.40;100.00;97895.03;4800005;29;20035;-76
2023/11/01 05:21:10;;;;;;;0.00;0.00;;;;;;;10.09;100.00;97857.81;4889074;29;20127;-77
2023/11/01 05:23:52;;;;;;;;;;;;;;;;;;;;;
2023/11/01 05:26:26;;;;;;;0.00;0.00;;;;;;;10.23;100.00;97883.00;4911979;29;20027;-76
2023/11/01 05:29:16;;;;;;;0.00;0.00;;;;;;;10.17;100.00;97870.63;4898071;29;20106;-77
2023/11/01 05:32:01;;;;;;;0.00;0.00;;;;;;;10.29;100.00;97873.50;4922413;29;20167;-77
2023/11/01 05:34:29;;;;;;;0.00;0.00;;;;;;;10.30;100.00;97885.22;4886985;29;20118;-77
2023/11/01 05:36:54;;;;;;;0.00;0.00;;;;;;;10.31;100.00;97886.84;4917918;29;20031;-77
2023/11/01 05:39:19;;;;;;;0.00;0.00;;;;;;;10.42;100.00;97898.25;4907303;29;20056;-78
2023/11/01 05:41:46;;;;;;;0.00;0.00;;;;;;;10.19;100.00;97860.22;4918238;29;20051;-77
2023/11/01 05:45:21;;;;;;;;;;;;;;;;;;;;;
2023/11/01 05:47:55;;;;;;;;;;;;;;;;;;;;;
2023/11/01 05:50:24;;;;;;;0.00;0.00;;;;;;;10.65;100.00;97920.66;4911035;29;20028;-77
2023/11/01 05:53:08;;;;;;;;;;;;;;;;;;;;;
2023/11/01 05:56:16;;;;;;;0.00;0.00;;;;;;;10.78;100.00;97927.03;4910566;29;20021;-79
2023/11/01 05:58:42;;;;;;;0.00;0.00;;;;;;;10.82;100.00;97925.25;4887638;29;20028;-78
2023/11/01 06:01:08;;;;;;;0.00;0.00;;;;;;;10.63;100.00;97887.38;4916619;29;20048;-79
2023/11/01 06:03:43;;;;;;;;;;;;;;;;;;;;;
2023/11/01 06:06:09;;;;;;;0.00;0.00;;;;;;;10.55;100.00;97886.28;4918236;29;20034;-78
2023/11/01 06:08:36;;;;;;;0.00;0.00;;;;;;;10.65;100.00;97893.34;4898890;29;20020;-78
2023/11/01 06:11:01;;;;;;;0.00;0.00;;;;;;;10.71;100.00;97904.88;4894558;29;20382;-79
2023/11/01 06:13:27;;;;;;;0.00;0.00;;;;;;;10.53;100.00;97876.81;4901249;29;20145;-78
2023/11/01 06:15:53;;;;;;;0.00;0.00;;;;;;;10.50;100.00;97880.19;4879283;29;20027;-78
2023/11/01 06:18:28;;;;;;;0.00;0.00;;;;;;;10.57;100.00;97900.44;4911420;29;20032;-78
2023/11/01 06:21:07;;;;;;;0.00;0.00;;;;;;;10.48;100.00;97903.22;4907607;29;20046;-78
2023/11/01 06:23:57;;;;;;;0.00;0.00;;;;;;;10.37;100.00;97857.44;4900273;29;20028;-78
2023/11/01 06:26:30;;;;;;;0.00;0.00;;;;;;;10.31;100.00;97865.78;4872997;29;20036;-79
2023/11/01 06:28:56;;;;;;;0.03;0.03;;;;;;;10.56;100.00;97898.81;4894411;29;20027;-80
2023/11/01 06:31:22;;;;;;;0.00;0.00;;;;;;;10.34;100.00;97877.19;4898711;29;20035;-80
2023/11/01 06:33:47;;;;;;;0.00;0.00;;;;;;;10.40;100.00;97875.91;4891615;29;20031;-80
2023/11/01 06:36:49;;;;;;;;;;;;;;;;;;;;;
2023/11/01 06:39:15;;;;;;;0.00;0.00;;;;;;;9.94;100.00;97815.44;4919839;29;20056;-80
2023/11/01 06:41:40;;;;;;;0.00;0.00;;;;;;;10.34;100.00;97880.75;4916431;29;20111;-76
2023/11/01 06:44:07;;;;;;;0.00;0.00;;;;;;;10.42;100.00;97895.50;4892030;29;20443;-76
2023/11/01 06:46:32;;;;;;;0.00;0.00;;;;;;;10.57;100.00;97908.63;4906065;29;20094;-76
2023/11/01 06:48:58;;;;;;;0.00;0.00;;;;;;;10.50;100.00;97889.22;4884724;29;20379;-76
2023/11/01 06:51:25;;;;;;;0.05;0.05;;;;;;;10.46;100.00;97889.06;4895444;29;20497;-75
2023/11/01 06:53:51;;;;;;;0.00;0.00;;;;;;;10.41;100.00;97874.78;4906726;29;20039;-76
2023/11/01 06:56:16;;;;;;;0.00;0.00;;;;;;;10.48;100.00;97880.53;4913166;29;20115;-75
2023/11/01 06:58:43;;;;;;;0.00;0.00;;;;;;;10.51;100.00;97877.13;4915855;29;20028;-76
2023/11/01 07:01:13;;;;;;;0.00;0.00;;;;;;;10.44;100.00;97865.91;4911063;29;20036;-77
2023/11/01 07:03:46;;;;;;;0.00;0.00;;;;;;;10.48;100.00;97869.59;4919638;29;21028;-75
2023/11/01 07:06:16;;;;;;;0.00;0.00;;;;;;;10.41;100.00;97882.97;4897432;29;20087;-76
2023/11/01 07:08:54;;;;;;;0.00;0.00;;;;;;;10.38;100.00;97861.75;4891862;29;20024;-76
2023/11/01 07:11:19;;;;;;;0.00;0.00;;;;;;;10.27;100.00;97840.25;4901888;29;20344;-76
2023/11/01 07:16:55;;;;;;;0.10;0.10;;;;;;;10.89;100.00;97917.31;4834061;29;20049;-79
2023/11/01 07:19:20;;;;;;;0.00;0.00;;;;;;;10.91;100.00;97926.00;4893061;29;20040;-77
2023/11/01 07:21:46;;;;;;;0.00;0.00;;;;;;;10.67;100.00;97874.66;4919653;29;20043;-76
2023/11/01 07:24:13;;;;;;;0.00;0.00;;;;;;;10.90;100.00;97910.72;4916068;29;20059;-77
2023/11/01 07:26:50;;;;;;;0.00;0.00;;;;;;;10.57;100.00;97867.66;4909215;29;20027;-76
2023/11/01 07:32:52;;;;;;;;;;;;;;;;;;;;;
2023/11/01 07:35:18;;;;;;;0.00;0.00;;;;;;;10.65;100.00;97891.38;4812262;29;20054;-79
2023/11/01 07:37:44;;;;;;;0.00;0.00;;;;;;;10.69;100.00;97902.47;4811976;29;21644;-77
2023/11/01 07:40:10;;;;;;;0.00;0.00;;;;;;;10.73;100.00;97902.59;4794233;29;20545;-77
2023/11/01 07:42:38;;;;;;;0.00;0.00;;;;;;;10.77;100.00;97903.56;4828299;29;20133;-77
2023/11/01 07:45:08;;;;;;;0.00;0.00;;;;;;;10.62;100.00;97878.38;4855194;29;20088;-79
2023/11/01 07:47:41;;;;;;;0.00;0.00;;;;;;;10.82;100.00;97897.94;4854814;29;20698;-79
2023/11/01 07:50:14;;;;;;;0.00;0.00;;;;;;;10.47;100.00;97848.88;4861516;29;20089;-77
2023/11/01 07:52:40;;;;;;;0.00;0.00;;;;;;;10.36;100.00;97823.06;4850445;29;20042;-77
2023/11/01 07:55:06;;;;;;;0.00;0.00;;;;;;;10.61;100.00;97871.31;4857804;29;20619;-76
2023/11/01 07:57:32;;;;;;;0.00;0.00;;;;;;;10.72;100.00;97873.66;4908468;29;20032;-76
2023/11/01 08:00:08;;;;;;;0.00;0.00;;;;;;;10.82;100.00;97873.31;4886408;29;20036;-75
2023/11/01 08:02:36;;;;;;;0.00;0.00;;;;;;;10.65;100.00;97850.38;4897532;29;20043;-76
2023/11/01 08:05:22;;;;;;;0.00;0.00;;;;;;;10.83;100.00;97869.44;4903235;29;20043;-75
2023/11/01 08:07:53;;;;;;;0.00;0.00;;;;;;;10.81;100.00;97877.19;4909835;29;20064;-75
2023/11/01 08:10:18;;;;;;;0.00;0.00;;;;;;;10.92;100.00;97875.69;4911540;29;20035;-74
2023/11/01 08:12:51;;;;;;;0.00;0.00;;;;;;;11.00;100.00;97880.28;4894799;29;20036;-74
2023/11/01 08:15:19;;;;;;;0.00;0.00;;;;;;;11.12;100.00;97878.75;4910212;29;20063;-76
2023/11/01 08:17:44;;;;;;;0.00;0.00;;;;;;;11.12;100.00;97859.63;4921377;29;20055;-74
2023/11/01 08:20:10;;;;;;;0.10;0.10;;;;;;;11.49;100.00;97900.84;4914317;29;20055;-75
2023/11/01 08:22:36;;;;;;;0.00;0.00;;;;;;;11.38;100.00;97848.47;4909286;29;20064;-77
2023/11/01 08:25:09;;;;;;;0.00;0.00;;;;;;;11.57;100.00;97828.84;4896308;29;20424;-75
2023/11/01 08:27:34;;;;;;;0.00;0.00;;;;;;;11.97;100.00;97861.19;4887580;29;20047;-75
2023/11/01 08:30:00;;;;;;;0.00;0.00;;;;;;;11.89;100.00;97864.78;4903832;29;20014;-75
2023/11/01 08:32:28;;;;;;;0.00;0.00;;;;;;;11.68;100.00;97846.47;4909659;29;20028;-75
2023/11/01 08:34:54;;;;;;;0.00;0.00;;;;;;;11.83;100.00;97861.44;4901660;29;20115;-76
2023/11/01 08:37:20;;;;;;;0.00;0.00;;;;;;;11.94;100.00;97859.09;4904918;29;20028;-75
2023/11/01 08:39:55;;;;;;;0.00;0.00;;;;;;;11.86;100.00;97824.38;4912784;28;20052;-76
2023/11/01 08:42:21;;;;;;;0.00;0.00;;;;;;;12.01;100.00;97829.22;4893231;29;20064;-75
2023/11/01 08:44:46;;;;;;;0.00;0.00;;;;;;;12.21;100.00;97843.22;4895022;29;20120;-75
2023/11/01 08:47:31;;;;;;;0.00;0.00;;;;;;;12.40;100.00;97846.19;4902805;29;20028;-76
2023/11/01 08:49:57;;;;;;;0.00;0.00;;;;;;;12.45;100.00;97869.84;4897060;29;20455;-74
2023/11/01 08:52:25;;;;;;;0.00;0.00;;;;;;;12.29;100.00;97839.56;4915282;29;20039;-75
2023/11/01 08:54:50;;;;;;;0.00;0.00;;;;;;;12.14;100.00;97842.97;4901413;29;20048;-75
2023/11/01 08:57:16;;;;;;;0.00;0.00;;;;;;;11.94;100.00;97834.47;4909029;29;20032;-75
2023/11/01 08:59:49;;;;;;;0.00;0.00;;;;;;;11.84;100.00;97823.91;4895818;29;20067;-75
2023/11/01 09:02:15;;;;;;;0.00;0.00;;;;;;;11.76;100.00;97802.91;4907418;29;20729;-75
2023/11/01 09:05:00;;;;;;;0.00;0.00;;;;;;;11.95;100.00;97847.03;4889116;29;20148;-74
2023/11/01 09:07:38;;;;;;;0.00;0.00;;;;;;;11.99;100.00;97828.78;4901737;29;21448;-75
2023/11/01 09:10:06;;;;;;;0.00;0.00;;;;;;;11.83;100.00;97819.59;4916457;29;20094;-75
2023/11/01 09:12:33;;;;;;;0.00;0.00;;;;;;;11.78;100.00;97837.00;4910698;29;20151;-75
2023/11/01 09:14:58;;;;;;;0.00;0.00;;;;;;;11.59;100.00;97839.47;4910302;29;20452;-74
2023/11/01 09:17:24;;;;;;;0.00;0.00;;;;;;;11.21;100.00;97802.91;4898201;29;20024;-74
2023/11/01 09:19:50;;;;;;;0.00;0.00;;;;;;;11.43;100.00;97850.22;4889175;29;20024;-75
2023/11/01 09:22:16;;;;;;;0.00;0.00;;;;;;;11.37;100.00;97846.09;4919540;29;20028;-74
2023/11/01 09:24:42;;;;;;;0.00;0.00;;;;;;;11.22;100.00;97806.47;4897523;29;20043;-75
2023/11/01 09:27:11;;;;;;;0.00;0.00;;;;;;;11.52;100.00;97829.03;4894449;29;20042;-75
2023/11/01 09:29:45;;;;;;;0.00;0.00;;;;;;;11.45;100.00;97801.44;4912372;29;20071;-74
2023/11/01 09:32:16;;;;;;;0.00;0.00;;;;;;;11.69;100.00;97815.19;4906502;29;20043;-74
2023/11/01 09:34:47;;;;;;;0.00;0.00;;;;;;;11.82;100.00;97801.56;4906616;29;20375;-76
2023/11/01 09:37:13;;;;;;;0.00;0.00;;;;;;;12.00;100.00;97805.75;4913882;29;20179;-74
2023/11/01 09:39:40;;;;;;;0.10;0.10;;;;;;;12.10;100.00;97792.75;4903661;29;20044;-74
2023/11/01 09:42:18;;;;;;;0.00;0.00;;;;;;;12.29;100.00;97816.84;4917901;29;20043;-74
2023/11/01 09:44:48;;;;;;;0.00;0.00;;;;;;;12.29;100.00;97809.41;4902831;29;20035;-77
2023/11/01 09:47:15;;;;;;;0.00;0.00;;;;;;;12.26;100.00;97796.41;4915586;29;20497;-74
2023/11/01 09:49:50;;;;;;;0.00;0.00;;;;;;;12.44;100.00;97807.97;4902972;29;20098;-75
2023/11/01 09:52:17;;;;;;;0.00;0.00;;;;;;;12.14;100.00;97760.78;4917562;29;20101;-75
2023/11/01 09:54:46;;;;;;;0.00;0.00;;;;;;;12.38;100.00;97792.88;4907073;29;20472;-76
2023/11/01 09:57:14;;;;;;;0.00;0.00;;;;;;;12.54;100.00;97812.16;4893605;29;20028;-76
2023/11/01 09:59:40;;;;;;;0.00;0.00;;;;;;;12.39;100.00;97789.78;4900823;29;20043;-76
2023/11/01 10:02:12;;;;;;;0.00;0.00;;;;;;;12.41;100.00;97781.22;4913233;29;20032;-75
2023/11/01 10:04:50;;;;;;;0.00;0.00;;;;;;;12.26;100.00;97779.97;4896174;29;20032;-74
2023/11/01 10:07:15;;;;;;;0.00;0.00;;;;;;;12.05;100.00;97802.78;4915119;29;20403;-75
2023/11/01 10:09:42;;;;;;;0.00;0.00;;;;;;;11.73;100.00;97778.94;4926015;29;20038;-76
2023/11/01 10:12:21;;;;;;;0.00;0.00;;;;;;;11.80;100.00;97795.63;4898501;29;20111;-76
2023/11/01 10:14:51;;;;;;;0.00;0.00;;;;;;;11.63;100.00;97775.47;4896435;29;20394;-75
2023/11/01 10:17:25;;;;;;;0.00;0.00;;;;;;;11.91;100.00;97826.91;4882368;29;20118;-75
2023/11/01 10:19:51;;;;;;;0.00;0.00;;;;;;;11.50;100.00;97773.84;4908388;29;20143;-74
2023/11/01 10:22:17;;;;;;;0.00;0.00;;;;;;;11.47;100.00;97790.94;4909513;29;20954;-74
2023/11/01 10:24:43;;;;;;;0.00;0.00;;;;;;;11.45;100.00;97790.50;4911368;29;20028;-77
2023/11/01 10:27:15;;;;;;;0.00;0.00;;;;;;;11.86;100.00;97810.69;4911379;29;20040;-75
2023/11/01 10:29:43;;;;;;;0.00;0.00;;;;;;;12.04;100.00;97772.97;4911146;29;20547;-75
2023/11/01 10:32:10;;;;;;;0.00;0.00;;;;;;;12.77;100.00;97776.06;4904547;29;20032;-76
2023/11/01 10:34:36;;;;;;;0.00;0.00;;;;;;;13.04;100.00;97791.78;4872300;29;20059;-75
2023/11/01 10:37:04;;;;;;;0.00;0.00;;;;;;;12.88;100.00;97778.00;4900580;29;20088;-76
2023/11/01 10:39:37;;;;;;;0.00;0.00;;;;;;;12.75;100.00;97779.16;4919656;28;20036;-75
2023/11/01 10:42:04;;;;;;;0.00;0.00;;;;;;;12.56;100.00;97787.97;4919137;29;20036;-76
2023/11/01 10:44:30;;;;;;;0.00;0.00;;;;;;;12.22;100.00;97818.22;4913347;29;20035;-75
2023/11/01 10:46:57;;;;;;;0.00;0.00;;;;;;;11.79;100.00;97802.22;4902028;29;20036;-74
2023/11/01 10:49:25;;;;;;;0.00;0.00;;;;;;;11.73;100.00;97801.66;4904250;29;20568;-75
2023/11/01 10:51:52;;;;;;;0.00;0.00;;;;;;;11.77;100.00;97779.84;4909388;29;20114;-75
2023/11/01 10:54:22;;;;;;;0.00;0.00;;;;;;;11.91;100.00;97780.34;4912554;29;20028;-75
2023/11/01 10:56:48;;;;;;;0.00;0.00;;;;;;;12.53;100.00;97755.78;4904670;29;20023;-75
2023/11/01 11:00:18;;;;;;;0.00;0.00;;;;;;;16.00;100.00;97812.63;4917452;29;20047;-74
2023/11/01 11:02:52;;;;;;;0.00;0.00;;;;;;;17.50;90.18;97820.88;4890227;29;20037;-74
2023/11/01 11:05:26;;;;;;;0.00;0.00;;;;;;;17.95;83.54;97786.66;4905327;29;20087;-73
2023/11/01 11:07:53;;;;;;;0.00;0.00;;;;;;;20.08;75.36;97792.69;4918057;29;20023;-75
2023/11/01 11:10:22;;;;;;;0.00;0.00;;;;;;;23.40;63.14;97830.97;4907167;29;20038;-75
2023/11/01 11:13:09;;;;;;;0.00;0.00;;;;;;;23.52;53.21;97836.81;4911965;29;20024;-74
2023/11/01 11:15:49;;;;;;;0.00;0.00;;;;;;;23.54;52.00;97828.00;4909506;29;20023;-76
2023/11/01 11:18:21;;;;;;;0.00;0.00;;;;;;;25.44;49.33;97804.72;4912228;29;20036;-75
2023/11/01 11:20:55;;;;;;;0.00;0.00;;;;;;;27.14;45.03;97826.09;4908440;29;20030;-75
2023/11/01 11:23:30;;;;;;;0.00;0.00;;;;;;;29.02;40.74;97821.28;4924901;29;20028;-76
2023/11/01 11:26:04;;;;;;;0.00;0.00;;;;;;;30.46;36.31;97813.19;4903695;29;20020;-74
2023/11/01 11:28:48;;;;;;;;;;;;;;;;;;;;;
2023/11/01 11:31:18;;;;;;;;;;;;;;;30.72;37.49;97836.28;4918330;29;20161;-75
2023/11/01 11:33:47;;;;;;;0.00;0.00;;;;;;;30.71;33.45;97829.09;4919209;29;19911;-75
2023/11/01 11:36:17;;;;;;;0.00;0.00;;;;;;;25.69;38.14;97825.03;4909591;29;20383;-75
2023/11/01 11:38:55;;;;;;;0.00;0.00;;;;;;;23.27;44.05;97819.56;4925812;29;20047;-77
2023/11/01 11:41:21;;;;;;;0.00;0.00;;;;;;;25.93;39.18;97832.13;4911147;29;20035;-75
2023/11/01 11:44:06;;;;;;;0.00;0.00;;;;;;;28.25;33.75;97836.19;4912850;29;20075;-76
2023/11/01 11:46:39;;;;;;;0.00;0.00;;;;;;;28.00;33.77;97823.69;4907875;29;20032;-76
2023/11/01 11:49:27;;;;;;;0.00;0.00;;;;;;;28.24;33.85;97829.03;4918553;29;20028;-76
2023/11/01 11:51:59;;;;;;;0.00;0.00;;;;;;;28.44;32.49;97811.91;4910433;29;20560;-75
2023/11/01 11:54:27;;;;;;;0.00;0.00;;;;;;;28.60;31.52;97844.72;4910235;29;20165;-76
2023/11/01 11:56:59;;;;;;;0.00;0.00;;;;;;;26.20;33.81;97836.75;4915665;29;20034;-76
2023/11/01 11:59:27;;;;;;;0.00;0.00;;;;;;;22.30;40.42;97832.28;4911664;29;20032;-76
2023/11/01 12:02:10;;;;;;;0.00;0.00;;;;;;;19.31;47.33;97829.63;4905138;29;20119;-76
2023/11/01 12:04:36;;;;;;;0.00;0.00;;;;;;;21.12;46.14;97853.00;4918310;29;20167;-76
2023/11/01 12:07:02;;;;;;;0.00;0.00;;;;;;;23.87;39.95;97854.34;4907989;29;20032;-75
2023/11/01 12:09:38;;;;;;;0.00;0.00;;;;;;;23.91;40.23;97848.69;4927965;29;20028;-74
2023/11/01 12:12:13;;;;;;;0.00;0.00;;;;;;;21.56;44.06;97849.72;4897584;29;20745;-76
2023/11/01 12:14:40;;;;;;;0.00;0.00;;;;;;;20.03;46.00;97830.72;4898987;29;20040;-77
2023/11/01 12:17:06;;;;;;;0.00;0.00;;;;;;;18.72;49.48;97844.25;4884718;29;20035;-76
2023/11/01 12:19:42;;;;;;;0.00;0.00;;;;;;;17.66;52.13;97840.00;4906832;29;20032;-75